sensor_id;sensor_type;location;lat;lon;timestamp;P1;durP1;ratioP1;P2;durP2;ratioP2
8007;SDS011;4049;49.468;11.200;2022-07-24T00:00:54;10.90;;;7.03;;
8007;SDS011;4049;49.468;11.200;2022-07-24T00:03:21;10.13;;;6.77;;
8007;SDS011;4049;49.468;11.200;2022-07-24T00:05:48;9.93;;;7.07;;
8007;SDS011;4049;49.468;11.200;2022-07-24T00:08:15;10.23;;;7.20;;
8007;SDS011;4049;49.468;11.200;2022-07-24T00:10:42;8.97;;;7.13;;
8007;SDS011;4049;49.468;11.200;2022-07-24T00:13:09;8.90;;;7.07;;
8007;SDS011;4049;49.468;11.200;2022-07-24T00:15:36;8.83;;;6.60;;
8007;SDS011;4049;49.468;11.200;2022-07-24T00:18:04;9.20;;;6.67;;
8007;SDS011;4049;49.468;11.200;2022-07-24T00:20:32;8.70;;;7.13;;
8007;SDS011;4049;49.468;11.200;2022-07-24T00:22:59;8.90;;;6.70;;
8007;SDS011;4049;49.468;11.200;2022-07-24T00:25:26;8.23;;;7.10;;
8007;SDS011;4049;49.468;11.200;2022-07-24T00:27:53;10.87;;;6.90;;
8007;SDS011;4049;49.468;11.200;2022-07-24T00:30:20;11.77;;;7.30;;
8007;SDS011;4049;49.468;11.200;2022-07-24T00:32:47;8.40;;;6.30;;
8007;SDS011;4049;49.468;11.200;2022-07-24T00:35:15;8.23;;;6.27;;
8007;SDS011;4049;49.468;11.200;2022-07-24T00:37:43;8.70;;;6.37;;
8007;SDS011;4049;49.468;11.200;2022-07-24T00:40:11;8.73;;;6.17;;
8007;SDS011;4049;49.468;11.200;2022-07-24T00:42:39;9.03;;;6.57;;
8007;SDS011;4049;49.468;11.200;2022-07-24T00:45:06;9.20;;;6.50;;
8007;SDS011;4049;49.468;11.200;2022-07-24T00:47:33;8.67;;;5.90;;
8007;SDS011;4049;49.468;11.200;2022-07-24T00:50:00;10.23;;;7.10;;
8007;SDS011;4049;49.468;11.200;2022-07-24T00:52:30;10.53;;;6.90;;
8007;SDS011;4049;49.468;11.200;2022-07-24T00:54:58;6.97;;;6.27;;
8007;SDS011;4049;49.468;11.200;2022-07-24T00:57:25;10.53;;;6.50;;
8007;SDS011;4049;49.468;11.200;2022-07-24T00:59:52;8.97;;;7.00;;
8007;SDS011;4049;49.468;11.200;2022-07-24T01:02:19;8.77;;;6.60;;
8007;SDS011;4049;49.468;11.200;2022-07-24T01:04:46;9.37;;;6.50;;
8007;SDS011;4049;49.468;11.200;2022-07-24T01:07:14;8.40;;;6.70;;
8007;SDS011;4049;49.468;11.200;2022-07-24T01:09:43;8.83;;;6.73;;
8007;SDS011;4049;49.468;11.200;2022-07-24T01:12:10;9.57;;;6.93;;
8007;SDS011;4049;49.468;11.200;2022-07-24T01:14:38;9.73;;;7.17;;
8007;SDS011;4049;49.468;11.200;2022-07-24T01:17:05;11.13;;;7.00;;
8007;SDS011;4049;49.468;11.200;2022-07-24T01:19:32;8.43;;;6.60;;
8007;SDS011;4049;49.468;11.200;2022-07-24T01:22:00;11.07;;;7.70;;
8007;SDS011;4049;49.468;11.200;2022-07-24T01:24:27;9.47;;;7.53;;
8007;SDS011;4049;49.468;11.200;2022-07-24T01:26:54;8.10;;;6.90;;
8007;SDS011;4049;49.468;11.200;2022-07-24T01:29:21;9.77;;;7.03;;
8007;SDS011;4049;49.468;11.200;2022-07-24T01:31:48;10.53;;;7.37;;
8007;SDS011;4049;49.468;11.200;2022-07-24T01:34:15;11.03;;;7.13;;
8007;SDS011;4049;49.468;11.200;2022-07-24T01:36:42;10.23;;;7.53;;
8007;SDS011;4049;49.468;11.200;2022-07-24T01:39:11;11.87;;;7.60;;
8007;SDS011;4049;49.468;11.200;2022-07-24T01:41:38;10.77;;;6.90;;
8007;SDS011;4049;49.468;11.200;2022-07-24T01:44:05;9.27;;;6.97;;
8007;SDS011;4049;49.468;11.200;2022-07-24T01:46:32;8.87;;;7.10;;
8007;SDS011;4049;49.468;11.200;2022-07-24T01:48:59;8.73;;;6.80;;
8007;SDS011;4049;49.468;11.200;2022-07-24T01:51:26;9.37;;;7.40;;
8007;SDS011;4049;49.468;11.200;2022-07-24T01:53:53;9.20;;;7.33;;
8007;SDS011;4049;49.468;11.200;2022-07-24T01:56:21;10.17;;;7.60;;
8007;SDS011;4049;49.468;11.200;2022-07-24T01:58:48;10.47;;;7.40;;
8007;SDS011;4049;49.468;11.200;2022-07-24T02:01:15;9.07;;;7.10;;
8007;SDS011;4049;49.468;11.200;2022-07-24T02:03:42;10.63;;;7.50;;
8007;SDS011;4049;49.468;11.200;2022-07-24T02:06:09;8.97;;;7.10;;
8007;SDS011;4049;49.468;11.200;2022-07-24T02:08:36;10.37;;;7.87;;
8007;SDS011;4049;49.468;11.200;2022-07-24T02:11:03;8.70;;;7.17;;
8007;SDS011;4049;49.468;11.200;2022-07-24T02:13:32;8.60;;;7.10;;
8007;SDS011;4049;49.468;11.200;2022-07-24T02:15:59;10.70;;;8.13;;
8007;SDS011;4049;49.468;11.200;2022-07-24T02:18:25;12.50;;;7.90;;
8007;SDS011;4049;49.468;11.200;2022-07-24T02:20:52;9.27;;;7.13;;
8007;SDS011;4049;49.468;11.200;2022-07-24T02:23:19;11.40;;;7.70;;
8007;SDS011;4049;49.468;11.200;2022-07-24T02:25:47;9.60;;;7.33;;
8007;SDS011;4049;49.468;11.200;2022-07-24T02:28:15;10.03;;;8.10;;
8007;SDS011;4049;49.468;11.200;2022-07-24T02:30:43;11.23;;;7.93;;
8007;SDS011;4049;49.468;11.200;2022-07-24T02:33:11;10.67;;;7.80;;
8007;SDS011;4049;49.468;11.200;2022-07-24T02:35:38;9.53;;;7.30;;
8007;SDS011;4049;49.468;11.200;2022-07-24T02:38:05;9.27;;;7.27;;
8007;SDS011;4049;49.468;11.200;2022-07-24T02:40:32;10.63;;;7.60;;
8007;SDS011;4049;49.468;11.200;2022-07-24T02:42:59;11.20;;;7.17;;
8007;SDS011;4049;49.468;11.200;2022-07-24T02:45:26;9.27;;;7.50;;
8007;SDS011;4049;49.468;11.200;2022-07-24T02:47:55;9.67;;;7.80;;
8007;SDS011;4049;49.468;11.200;2022-07-24T02:50:24;10.33;;;7.70;;
8007;SDS011;4049;49.468;11.200;2022-07-24T02:52:55;9.27;;;6.90;;
8007;SDS011;4049;49.468;11.200;2022-07-24T02:55:22;10.53;;;7.37;;
8007;SDS011;4049;49.468;11.200;2022-07-24T02:57:49;11.70;;;7.63;;
8007;SDS011;4049;49.468;11.200;2022-07-24T03:00:16;10.83;;;7.73;;
8007;SDS011;4049;49.468;11.200;2022-07-24T03:02:44;14.43;;;7.70;;
8007;SDS011;4049;49.468;11.200;2022-07-24T03:05:13;12.77;;;8.63;;
8007;SDS011;4049;49.468;11.200;2022-07-24T03:07:40;10.03;;;8.00;;
8007;SDS011;4049;49.468;11.200;2022-07-24T03:10:08;10.63;;;8.27;;
8007;SDS011;4049;49.468;11.200;2022-07-24T03:12:36;10.43;;;7.40;;
8007;SDS011;4049;49.468;11.200;2022-07-24T03:15:03;13.47;;;7.83;;
8007;SDS011;4049;49.468;11.200;2022-07-24T03:17:31;10.50;;;7.53;;
8007;SDS011;4049;49.468;11.200;2022-07-24T03:19:58;11.60;;;7.90;;
8007;SDS011;4049;49.468;11.200;2022-07-24T03:22:27;11.77;;;8.20;;
8007;SDS011;4049;49.468;11.200;2022-07-24T03:24:53;15.03;;;8.03;;
8007;SDS011;4049;49.468;11.200;2022-07-24T03:27:20;14.30;;;8.43;;
8007;SDS011;4049;49.468;11.200;2022-07-24T03:29:48;12.53;;;7.70;;
8007;SDS011;4049;49.468;11.200;2022-07-24T03:32:15;10.13;;;7.80;;
8007;SDS011;4049;49.468;11.200;2022-07-24T03:34:42;12.93;;;7.67;;
8007;SDS011;4049;49.468;11.200;2022-07-24T03:37:09;13.27;;;7.77;;
8007;SDS011;4049;49.468;11.200;2022-07-24T03:39:37;11.80;;;7.47;;
8007;SDS011;4049;49.468;11.200;2022-07-24T03:42:04;12.50;;;8.07;;
8007;SDS011;4049;49.468;11.200;2022-07-24T03:44:31;12.33;;;8.07;;
8007;SDS011;4049;49.468;11.200;2022-07-24T03:46:58;12.57;;;7.40;;
8007;SDS011;4049;49.468;11.200;2022-07-24T03:49:25;11.87;;;7.27;;
8007;SDS011;4049;49.468;11.200;2022-07-24T03:51:52;11.73;;;8.13;;
8007;SDS011;4049;49.468;11.200;2022-07-24T03:54:19;10.77;;;7.77;;
8007;SDS011;4049;49.468;11.200;2022-07-24T03:56:48;11.27;;;7.80;;
8007;SDS011;4049;49.468;11.200;2022-07-24T03:59:15;11.70;;;7.67;;
8007;SDS011;4049;49.468;11.200;2022-07-24T04:01:42;9.57;;;7.13;;
8007;SDS011;4049;49.468;11.200;2022-07-24T04:04:09;12.57;;;7.20;;
8007;SDS011;4049;49.468;11.200;2022-07-24T04:06:36;14.20;;;8.93;;
8007;SDS011;4049;49.468;11.200;2022-07-24T04:09:05;15.90;;;9.23;;
8007;SDS011;4049;49.468;11.200;2022-07-24T04:11:33;15.23;;;9.00;;
8007;SDS011;4049;49.468;11.200;2022-07-24T04:14:01;16.67;;;8.77;;
8007;SDS011;4049;49.468;11.200;2022-07-24T04:16:28;13.40;;;9.17;;
8007;SDS011;4049;49.468;11.200;2022-07-24T04:18:55;11.83;;;7.80;;
8007;SDS011;4049;49.468;11.200;2022-07-24T04:21:22;12.80;;;8.43;;
8007;SDS011;4049;49.468;11.200;2022-07-24T04:23:49;18.43;;;9.37;;
8007;SDS011;4049;49.468;11.200;2022-07-24T04:26:16;15.03;;;8.53;;
8007;SDS011;4049;49.468;11.200;2022-07-24T04:28:43;12.10;;;8.47;;
8007;SDS011;4049;49.468;11.200;2022-07-24T04:31:12;15.00;;;8.33;;
8007;SDS011;4049;49.468;11.200;2022-07-24T04:33:39;15.80;;;8.73;;
8007;SDS011;4049;49.468;11.200;2022-07-24T04:36:06;13.77;;;8.37;;
8007;SDS011;4049;49.468;11.200;2022-07-24T04:38:33;15.07;;;8.90;;
8007;SDS011;4049;49.468;11.200;2022-07-24T04:41:01;15.77;;;9.50;;
8007;SDS011;4049;49.468;11.200;2022-07-24T04:43:28;15.53;;;9.00;;
8007;SDS011;4049;49.468;11.200;2022-07-24T04:45:55;14.90;;;9.50;;
8007;SDS011;4049;49.468;11.200;2022-07-24T04:48:23;18.60;;;10.30;;
8007;SDS011;4049;49.468;11.200;2022-07-24T04:50:51;15.60;;;10.07;;
8007;SDS011;4049;49.468;11.200;2022-07-24T04:53:18;14.97;;;9.60;;
8007;SDS011;4049;49.468;11.200;2022-07-24T04:55:45;16.77;;;9.80;;
8007;SDS011;4049;49.468;11.200;2022-07-24T04:58:12;22.90;;;10.07;;
8007;SDS011;4049;49.468;11.200;2022-07-24T05:00:39;16.90;;;10.60;;
8007;SDS011;4049;49.468;11.200;2022-07-24T05:03:06;17.57;;;9.57;;
8007;SDS011;4049;49.468;11.200;2022-07-24T05:05:34;13.47;;;9.70;;
8007;SDS011;4049;49.468;11.200;2022-07-24T05:08:01;13.37;;;8.53;;
8007;SDS011;4049;49.468;11.200;2022-07-24T05:10:29;12.93;;;8.90;;
8007;SDS011;4049;49.468;11.200;2022-07-24T05:12:56;13.30;;;9.00;;
8007;SDS011;4049;49.468;11.200;2022-07-24T05:15:22;12.13;;;9.10;;
8007;SDS011;4049;49.468;11.200;2022-07-24T05:17:49;14.37;;;9.93;;
8007;SDS011;4049;49.468;11.200;2022-07-24T05:20:16;14.00;;;10.07;;
8007;SDS011;4049;49.468;11.200;2022-07-24T05:22:45;11.37;;;8.90;;
8007;SDS011;4049;49.468;11.200;2022-07-24T05:25:12;14.57;;;9.37;;
8007;SDS011;4049;49.468;11.200;2022-07-24T05:27:39;15.67;;;9.77;;
8007;SDS011;4049;49.468;11.200;2022-07-24T05:30:06;13.10;;;9.67;;
8007;SDS011;4049;49.468;11.200;2022-07-24T05:32:34;13.27;;;9.13;;
8007;SDS011;4049;49.468;11.200;2022-07-24T05:35:01;12.67;;;8.77;;
8007;SDS011;4049;49.468;11.200;2022-07-24T05:37:28;13.30;;;9.30;;
8007;SDS011;4049;49.468;11.200;2022-07-24T05:39:56;14.33;;;9.67;;
8007;SDS011;4049;49.468;11.200;2022-07-24T05:42:24;13.67;;;10.07;;
8007;SDS011;4049;49.468;11.200;2022-07-24T05:44:51;12.93;;;9.57;;
8007;SDS011;4049;49.468;11.200;2022-07-24T05:47:18;12.00;;;8.87;;
8007;SDS011;4049;49.468;11.200;2022-07-24T05:49:45;13.00;;;9.20;;
8007;SDS011;4049;49.468;11.200;2022-07-24T05:52:12;13.37;;;9.67;;
8007;SDS011;4049;49.468;11.200;2022-07-24T05:54:38;12.13;;;9.63;;
8007;SDS011;4049;49.468;11.200;2022-07-24T05:57:07;15.13;;;10.13;;
8007;SDS011;4049;49.468;11.200;2022-07-24T05:59:34;14.03;;;10.23;;
8007;SDS011;4049;49.468;11.200;2022-07-24T06:02:01;11.60;;;9.13;;
8007;SDS011;4049;49.468;11.200;2022-07-24T06:04:29;13.83;;;10.23;;
8007;SDS011;4049;49.468;11.200;2022-07-24T06:06:56;13.40;;;9.53;;
8007;SDS011;4049;49.468;11.200;2022-07-24T06:09:23;12.93;;;9.83;;
8007;SDS011;4049;49.468;11.200;2022-07-24T06:11:50;12.27;;;9.43;;
8007;SDS011;4049;49.468;11.200;2022-07-24T06:14:18;11.77;;;8.77;;
8007;SDS011;4049;49.468;11.200;2022-07-24T06:16:45;12.57;;;8.67;;
8007;SDS011;4049;49.468;11.200;2022-07-24T06:19:12;12.83;;;9.37;;
8007;SDS011;4049;49.468;11.200;2022-07-24T06:21:39;12.63;;;9.50;;
8007;SDS011;4049;49.468;11.200;2022-07-24T06:24:06;13.13;;;9.70;;
8007;SDS011;4049;49.468;11.200;2022-07-24T06:26:34;11.13;;;9.33;;
8007;SDS011;4049;49.468;11.200;2022-07-24T06:29:01;11.80;;;9.30;;
8007;SDS011;4049;49.468;11.200;2022-07-24T06:31:29;10.80;;;8.50;;
8007;SDS011;4049;49.468;11.200;2022-07-24T06:33:56;11.63;;;8.57;;
8007;SDS011;4049;49.468;11.200;2022-07-24T06:36:23;11.83;;;9.10;;
8007;SDS011;4049;49.468;11.200;2022-07-24T06:38:50;10.20;;;8.93;;
8007;SDS011;4049;49.468;11.200;2022-07-24T06:41:17;12.60;;;9.47;;
8007;SDS011;4049;49.468;11.200;2022-07-24T06:43:44;11.87;;;9.10;;
8007;SDS011;4049;49.468;11.200;2022-07-24T06:46:11;10.83;;;8.70;;
8007;SDS011;4049;49.468;11.200;2022-07-24T06:48:39;12.37;;;9.60;;
8007;SDS011;4049;49.468;11.200;2022-07-24T06:51:06;11.50;;;9.03;;
8007;SDS011;4049;49.468;11.200;2022-07-24T06:53:33;13.57;;;9.77;;
8007;SDS011;4049;49.468;11.200;2022-07-24T06:56:01;11.60;;;9.30;;
8007;SDS011;4049;49.468;11.200;2022-07-24T06:58:29;12.50;;;9.57;;
8007;SDS011;4049;49.468;11.200;2022-07-24T07:00:56;10.87;;;8.60;;
8007;SDS011;4049;49.468;11.200;2022-07-24T07:03:23;10.93;;;9.20;;
8007;SDS011;4049;49.468;11.200;2022-07-24T07:05:51;11.50;;;9.47;;
8007;SDS011;4049;49.468;11.200;2022-07-24T07:08:18;11.43;;;8.70;;
8007;SDS011;4049;49.468;11.200;2022-07-24T07:10:45;11.90;;;8.87;;
8007;SDS011;4049;49.468;11.200;2022-07-24T07:13:12;12.87;;;9.77;;
8007;SDS011;4049;49.468;11.200;2022-07-24T07:15:39;12.40;;;9.53;;
8007;SDS011;4049;49.468;11.200;2022-07-24T07:18:06;13.00;;;8.97;;
8007;SDS011;4049;49.468;11.200;2022-07-24T07:20:33;11.47;;;8.70;;
8007;SDS011;4049;49.468;11.200;2022-07-24T07:23:01;11.73;;;9.07;;
8007;SDS011;4049;49.468;11.200;2022-07-24T07:25:28;13.47;;;9.30;;
8007;SDS011;4049;49.468;11.200;2022-07-24T07:27:55;11.63;;;8.73;;
8007;SDS011;4049;49.468;11.200;2022-07-24T07:30:22;11.20;;;9.03;;
8007;SDS011;4049;49.468;11.200;2022-07-24T07:32:49;10.30;;;8.97;;
8007;SDS011;4049;49.468;11.200;2022-07-24T07:35:16;12.50;;;9.43;;
8007;SDS011;4049;49.468;11.200;2022-07-24T07:37:45;10.87;;;8.60;;
8007;SDS011;4049;49.468;11.200;2022-07-24T07:40:13;12.20;;;8.67;;
8007;SDS011;4049;49.468;11.200;2022-07-24T07:42:40;11.47;;;8.97;;
8007;SDS011;4049;49.468;11.200;2022-07-24T07:45:08;13.53;;;9.03;;
8007;SDS011;4049;49.468;11.200;2022-07-24T07:47:35;12.67;;;8.87;;
8007;SDS011;4049;49.468;11.200;2022-07-24T07:50:03;11.27;;;8.40;;
8007;SDS011;4049;49.468;11.200;2022-07-24T07:52:30;12.17;;;9.17;;
8007;SDS011;4049;49.468;11.200;2022-07-24T07:54:57;10.77;;;9.00;;
8007;SDS011;4049;49.468;11.200;2022-07-24T07:57:26;11.07;;;8.43;;
8007;SDS011;4049;49.468;11.200;2022-07-24T07:59:53;10.77;;;8.97;;
8007;SDS011;4049;49.468;11.200;2022-07-24T08:02:20;10.47;;;8.33;;
8007;SDS011;4049;49.468;11.200;2022-07-24T08:04:47;12.70;;;8.80;;
8007;SDS011;4049;49.468;11.200;2022-07-24T08:07:14;11.20;;;8.87;;
8007;SDS011;4049;49.468;11.200;2022-07-24T08:09:41;11.90;;;8.67;;
8007;SDS011;4049;49.468;11.200;2022-07-24T08:12:08;11.10;;;9.27;;
8007;SDS011;4049;49.468;11.200;2022-07-24T08:14:36;15.83;;;9.63;;
8007;SDS011;4049;49.468;11.200;2022-07-24T08:17:03;10.67;;;8.07;;
8007;SDS011;4049;49.468;11.200;2022-07-24T08:19:30;11.40;;;9.20;;
8007;SDS011;4049;49.468;11.200;2022-07-24T08:21:57;10.33;;;8.30;;
8007;SDS011;4049;49.468;11.200;2022-07-24T08:24:24;9.93;;;8.63;;
8007;SDS011;4049;49.468;11.200;2022-07-24T08:26:51;9.93;;;7.87;;
8007;SDS011;4049;49.468;11.200;2022-07-24T08:29:18;11.80;;;8.47;;
8007;SDS011;4049;49.468;11.200;2022-07-24T08:31:46;10.57;;;8.52;;
8007;SDS011;4049;49.468;11.200;2022-07-24T08:34:13;9.57;;;7.88;;
8007;SDS011;4049;49.468;11.200;2022-07-24T08:36:40;14.00;;;9.43;;
8007;SDS011;4049;49.468;11.200;2022-07-24T08:39:10;9.02;;;7.53;;
8007;SDS011;4049;49.468;11.200;2022-07-24T08:41:37;12.07;;;8.65;;
8007;SDS011;4049;49.468;11.200;2022-07-24T08:44:05;12.32;;;8.55;;
8007;SDS011;4049;49.468;11.200;2022-07-24T08:46:32;9.55;;;7.68;;
8007;SDS011;4049;49.468;11.200;2022-07-24T08:49:04;8.90;;;7.78;;
8007;SDS011;4049;49.468;11.200;2022-07-24T08:51:32;9.18;;;7.05;;
8007;SDS011;4049;49.468;11.200;2022-07-24T08:54:01;8.75;;;7.22;;
8007;SDS011;4049;49.468;11.200;2022-07-24T08:56:28;10.52;;;7.25;;
8007;SDS011;4049;49.468;11.200;2022-07-24T08:58:58;11.23;;;7.25;;
8007;SDS011;4049;49.468;11.200;2022-07-24T09:01:25;8.73;;;6.75;;
8007;SDS011;4049;49.468;11.200;2022-07-24T09:03:53;8.02;;;6.68;;
8007;SDS011;4049;49.468;11.200;2022-07-24T09:06:21;8.70;;;7.03;;
8007;SDS011;4049;49.468;11.200;2022-07-24T09:08:57;9.32;;;6.50;;
8007;SDS011;4049;49.468;11.200;2022-07-24T09:11:27;9.50;;;6.78;;
8007;SDS011;4049;49.468;11.200;2022-07-24T09:13:58;7.38;;;6.53;;
8007;SDS011;4049;49.468;11.200;2022-07-24T09:16:44;9.05;;;7.15;;
8007;SDS011;4049;49.468;11.200;2022-07-24T09:19:11;7.43;;;6.40;;
8007;SDS011;4049;49.468;11.200;2022-07-24T09:21:43;7.93;;;6.57;;
8007;SDS011;4049;49.468;11.200;2022-07-24T09:24:14;7.70;;;6.40;;
8007;SDS011;4049;49.468;11.200;2022-07-24T09:26:43;7.75;;;6.95;;
8007;SDS011;4049;49.468;11.200;2022-07-24T09:29:11;6.63;;;5.93;;
8007;SDS011;4049;49.468;11.200;2022-07-24T09:31:51;7.57;;;5.95;;
8007;SDS011;4049;49.468;11.200;2022-07-24T09:34:19;7.85;;;5.53;;
8007;SDS011;4049;49.468;11.200;2022-07-24T09:36:55;6.88;;;5.90;;
8007;SDS011;4049;49.468;11.200;2022-07-24T09:39:23;8.55;;;6.10;;
8007;SDS011;4049;49.468;11.200;2022-07-24T09:41:51;7.97;;;5.72;;
8007;SDS011;4049;49.468;11.200;2022-07-24T09:44:19;8.68;;;6.00;;
8007;SDS011;4049;49.468;11.200;2022-07-24T09:46:54;8.98;;;5.88;;
8007;SDS011;4049;49.468;11.200;2022-07-24T09:49:23;7.85;;;5.47;;
8007;SDS011;4049;49.468;11.200;2022-07-24T09:52:08;7.13;;;5.50;;
8007;SDS011;4049;49.468;11.200;2022-07-24T09:54:40;7.10;;;5.50;;
8007;SDS011;4049;49.468;11.200;2022-07-24T09:57:22;6.93;;;5.70;;
8007;SDS011;4049;49.468;11.200;2022-07-24T09:59:51;6.45;;;5.18;;
8007;SDS011;4049;49.468;11.200;2022-07-24T10:02:21;7.78;;;5.57;;
8007;SDS011;4049;49.468;11.200;2022-07-24T10:04:49;7.63;;;5.40;;
8007;SDS011;4049;49.468;11.200;2022-07-24T10:07:20;6.28;;;5.28;;
8007;SDS011;4049;49.468;11.200;2022-07-24T10:09:49;7.40;;;5.63;;
8007;SDS011;4049;49.468;11.200;2022-07-24T10:12:17;5.40;;;4.82;;
8007;SDS011;4049;49.468;11.200;2022-07-24T10:14:46;6.03;;;5.13;;
8007;SDS011;4049;49.468;11.200;2022-07-24T10:17:15;7.97;;;5.43;;
8007;SDS011;4049;49.468;11.200;2022-07-24T10:19:44;7.53;;;5.70;;
8007;SDS011;4049;49.468;11.200;2022-07-24T10:22:12;7.63;;;5.60;;
8007;SDS011;4049;49.468;11.200;2022-07-24T10:27:29;5.53;;;4.95;;
8007;SDS011;4049;49.468;11.200;2022-07-24T10:29:58;6.30;;;4.68;;
8007;SDS011;4049;49.468;11.200;2022-07-24T10:32:27;5.68;;;4.88;;
8007;SDS011;4049;49.468;11.200;2022-07-24T10:35:00;5.97;;;4.97;;
8007;SDS011;4049;49.468;11.200;2022-07-24T10:37:37;5.97;;;5.20;;
8007;SDS011;4049;49.468;11.200;2022-07-24T10:40:16;6.32;;;5.18;;
8007;SDS011;4049;49.468;11.200;2022-07-24T10:45:37;6.45;;;5.47;;
8007;SDS011;4049;49.468;11.200;2022-07-24T10:50:59;7.55;;;5.72;;
8007;SDS011;4049;49.468;11.200;2022-07-24T10:53:47;5.97;;;5.38;;
8007;SDS011;4049;49.468;11.200;2022-07-24T10:56:19;6.38;;;5.60;;
8007;SDS011;4049;49.468;11.200;2022-07-24T10:58:55;7.22;;;5.40;;
8007;SDS011;4049;49.468;11.200;2022-07-24T11:01:28;6.07;;;4.88;;
8007;SDS011;4049;49.468;11.200;2022-07-24T11:03:57;6.78;;;5.38;;
8007;SDS011;4049;49.468;11.200;2022-07-24T11:06:37;6.47;;;5.18;;
8007;SDS011;4049;49.468;11.200;2022-07-24T11:09:05;5.45;;;4.90;;
8007;SDS011;4049;49.468;11.200;2022-07-24T11:11:34;7.40;;;5.45;;
8007;SDS011;4049;49.468;11.200;2022-07-24T11:14:07;6.25;;;5.18;;
8007;SDS011;4049;49.468;11.200;2022-07-24T11:16:35;5.43;;;4.80;;
8007;SDS011;4049;49.468;11.200;2022-07-24T11:22:05;5.63;;;5.05;;
8007;SDS011;4049;49.468;11.200;2022-07-24T11:24:33;7.90;;;5.20;;
8007;SDS011;4049;49.468;11.200;2022-07-24T11:27:05;6.10;;;4.80;;
8007;SDS011;4049;49.468;11.200;2022-07-24T11:29:34;5.68;;;5.10;;
8007;SDS011;4049;49.468;11.200;2022-07-24T11:32:03;6.45;;;5.40;;
8007;SDS011;4049;49.468;11.200;2022-07-24T11:34:32;6.53;;;5.30;;
8007;SDS011;4049;49.468;11.200;2022-07-24T11:37:00;5.95;;;5.45;;
8007;SDS011;4049;49.468;11.200;2022-07-24T11:39:29;5.47;;;4.90;;
8007;SDS011;4049;49.468;11.200;2022-07-24T11:41:58;5.78;;;5.15;;
8007;SDS011;4049;49.468;11.200;2022-07-24T11:44:29;6.28;;;5.47;;
8007;SDS011;4049;49.468;11.200;2022-07-24T11:46:57;5.95;;;5.35;;
8007;SDS011;4049;49.468;11.200;2022-07-24T11:49:26;6.65;;;5.25;;
8007;SDS011;4049;49.468;11.200;2022-07-24T11:51:54;6.10;;;5.25;;
8007;SDS011;4049;49.468;11.200;2022-07-24T11:54:22;5.45;;;4.90;;
8007;SDS011;4049;49.468;11.200;2022-07-24T11:56:51;5.72;;;5.13;;
8007;SDS011;4049;49.468;11.200;2022-07-24T11:59:21;5.75;;;5.15;;
8007;SDS011;4049;49.468;11.200;2022-07-24T12:01:50;7.45;;;5.07;;
8007;SDS011;4049;49.468;11.200;2022-07-24T12:04:22;5.47;;;4.97;;
8007;SDS011;4049;49.468;11.200;2022-07-24T12:06:49;5.15;;;4.63;;
8007;SDS011;4049;49.468;11.200;2022-07-24T12:09:16;5.43;;;4.63;;
8007;SDS011;4049;49.468;11.200;2022-07-24T12:11:43;6.35;;;4.82;;
8007;SDS011;4049;49.468;11.200;2022-07-24T12:14:14;5.60;;;5.07;;
8007;SDS011;4049;49.468;11.200;2022-07-24T12:16:42;5.43;;;4.93;;
8007;SDS011;4049;49.468;11.200;2022-07-24T12:19:15;5.80;;;5.20;;
8007;SDS011;4049;49.468;11.200;2022-07-24T12:21:44;5.28;;;4.75;;
8007;SDS011;4049;49.468;11.200;2022-07-24T12:24:13;6.57;;;5.00;;
8007;SDS011;4049;49.468;11.200;2022-07-24T12:26:47;6.25;;;5.03;;
8007;SDS011;4049;49.468;11.200;2022-07-24T12:29:15;5.35;;;4.53;;
8007;SDS011;4049;49.468;11.200;2022-07-24T12:31:42;6.05;;;5.10;;
8007;SDS011;4049;49.468;11.200;2022-07-24T12:34:09;7.95;;;5.10;;
8007;SDS011;4049;49.468;11.200;2022-07-24T12:36:38;5.43;;;4.93;;
8007;SDS011;4049;49.468;11.200;2022-07-24T12:39:06;6.22;;;5.60;;
8007;SDS011;4049;49.468;11.200;2022-07-24T12:41:41;6.13;;;5.50;;
8007;SDS011;4049;49.468;11.200;2022-07-24T12:44:10;6.07;;;5.40;;
8007;SDS011;4049;49.468;11.200;2022-07-24T12:46:38;5.90;;;5.35;;
8007;SDS011;4049;49.468;11.200;2022-07-24T12:49:07;6.15;;;5.55;;
8007;SDS011;4049;49.468;11.200;2022-07-24T12:51:48;6.57;;;5.30;;
8007;SDS011;4049;49.468;11.200;2022-07-24T12:54:17;5.80;;;4.88;;
8007;SDS011;4049;49.468;11.200;2022-07-24T12:56:46;5.90;;;5.28;;
8007;SDS011;4049;49.468;11.200;2022-07-24T12:59:24;5.47;;;4.95;;
8007;SDS011;4049;49.468;11.200;2022-07-24T13:01:53;5.88;;;5.28;;
8007;SDS011;4049;49.468;11.200;2022-07-24T13:04:23;5.72;;;5.18;;
8007;SDS011;4049;49.468;11.200;2022-07-24T13:06:53;5.88;;;5.38;;
8007;SDS011;4049;49.468;11.200;2022-07-24T13:09:21;5.90;;;4.93;;
8007;SDS011;4049;49.468;11.200;2022-07-24T13:11:49;6.93;;;5.57;;
8007;SDS011;4049;49.468;11.200;2022-07-24T13:14:18;6.40;;;5.35;;
8007;SDS011;4049;49.468;11.200;2022-07-24T13:16:47;5.60;;;5.10;;
8007;SDS011;4049;49.468;11.200;2022-07-24T13:19:16;6.85;;;5.03;;
8007;SDS011;4049;49.468;11.200;2022-07-24T13:21:44;6.82;;;5.05;;
8007;SDS011;4049;49.468;11.200;2022-07-24T13:24:14;5.93;;;5.03;;
8007;SDS011;4049;49.468;11.200;2022-07-24T13:26:42;5.47;;;4.97;;
8007;SDS011;4049;49.468;11.200;2022-07-24T13:29:10;6.10;;;5.50;;
8007;SDS011;4049;49.468;11.200;2022-07-24T13:31:39;6.97;;;5.10;;
8007;SDS011;4049;49.468;11.200;2022-07-24T13:34:07;5.18;;;4.68;;
8007;SDS011;4049;49.468;11.200;2022-07-24T13:36:34;6.10;;;5.50;;
8007;SDS011;4049;49.468;11.200;2022-07-24T13:39:02;7.38;;;5.25;;
8007;SDS011;4049;49.468;11.200;2022-07-24T13:41:31;5.78;;;5.28;;
8007;SDS011;4049;49.468;11.200;2022-07-24T13:43:59;5.57;;;4.95;;
8007;SDS011;4049;49.468;11.200;2022-07-24T13:46:26;5.75;;;5.00;;
8007;SDS011;4049;49.468;11.200;2022-07-24T13:48:54;6.35;;;5.13;;
8007;SDS011;4049;49.468;11.200;2022-07-24T13:51:21;6.00;;;5.40;;
8007;SDS011;4049;49.468;11.200;2022-07-24T13:53:48;5.68;;;5.07;;
8007;SDS011;4049;49.468;11.200;2022-07-24T13:56:15;6.05;;;5.32;;
8007;SDS011;4049;49.468;11.200;2022-07-24T13:58:44;5.47;;;4.97;;
8007;SDS011;4049;49.468;11.200;2022-07-24T14:01:11;5.55;;;5.00;;
8007;SDS011;4049;49.468;11.200;2022-07-24T14:03:39;7.28;;;5.25;;
8007;SDS011;4049;49.468;11.200;2022-07-24T14:06:07;5.53;;;4.97;;
8007;SDS011;4049;49.468;11.200;2022-07-24T14:08:34;5.65;;;5.05;;
8007;SDS011;4049;49.468;11.200;2022-07-24T14:11:02;5.38;;;4.88;;
8007;SDS011;4049;49.468;11.200;2022-07-24T14:13:29;7.38;;;5.57;;
8007;SDS011;4049;49.468;11.200;2022-07-24T14:15:57;5.50;;;5.00;;
8007;SDS011;4049;49.468;11.200;2022-07-24T14:18:24;5.60;;;5.00;;
8007;SDS011;4049;49.468;11.200;2022-07-24T14:20:51;5.97;;;5.22;;
8007;SDS011;4049;49.468;11.200;2022-07-24T14:23:18;5.68;;;4.90;;
8007;SDS011;4049;49.468;11.200;2022-07-24T14:25:45;6.22;;;5.63;;
8007;SDS011;4049;49.468;11.200;2022-07-24T14:28:13;6.30;;;5.70;;
8007;SDS011;4049;49.468;11.200;2022-07-24T14:30:41;6.10;;;5.45;;
8007;SDS011;4049;49.468;11.200;2022-07-24T14:33:09;5.28;;;4.65;;
8007;SDS011;4049;49.468;11.200;2022-07-24T14:35:36;6.53;;;5.85;;
8007;SDS011;4049;49.468;11.200;2022-07-24T14:38:03;5.40;;;4.90;;
8007;SDS011;4049;49.468;11.200;2022-07-24T14:40:30;5.82;;;5.22;;
8007;SDS011;4049;49.468;11.200;2022-07-24T14:42:57;6.10;;;5.50;;
8007;SDS011;4049;49.468;11.200;2022-07-24T14:45:24;6.13;;;5.50;;
8007;SDS011;4049;49.468;11.200;2022-07-24T14:47:51;5.68;;;5.18;;
8007;SDS011;4049;49.468;11.200;2022-07-24T14:50:20;5.72;;;5.13;;
8007;SDS011;4049;49.468;11.200;2022-07-24T14:52:47;6.10;;;5.38;;
8007;SDS011;4049;49.468;11.200;2022-07-24T14:55:14;5.30;;;4.80;;
8007;SDS011;4049;49.468;11.200;2022-07-24T14:57:41;5.68;;;5.13;;
8007;SDS011;4049;49.468;11.200;2022-07-24T15:00:09;6.68;;;5.57;;
8007;SDS011;4049;49.468;11.200;2022-07-24T15:02:36;5.45;;;4.93;;
8007;SDS011;4049;49.468;11.200;2022-07-24T15:05:04;6.15;;;5.03;;
8007;SDS011;4049;49.468;11.200;2022-07-24T15:07:33;6.68;;;5.80;;
8007;SDS011;4049;49.468;11.200;2022-07-24T15:10:00;6.57;;;5.93;;
8007;SDS011;4049;49.468;11.200;2022-07-24T15:12:27;5.70;;;5.15;;